Terminal Aerodrome Forecast
Issued by NWS

Home | Current Version | Previous Version | Text Only | Print | Product List | Glossary On
Versions: 1 2 3 4 5 6 7 8 9 10 11 12 13 14 15 16 17 18 19 20 21 22 23 24 25 26
000
FTUS41 KBTV 230558 AAA
TAFPBG
TAF AMD
KPBG 230558Z 2306/2406 35005KT 6SM BR OVC005
      TEMPO 2306/2310 3SM BR OVC007
     FM231200 10005KT P6SM OVC025
     FM240000 07006KT P6SM VCSH OVC040
     FM240300 07006KT 5SM -SN BR OVC025=

USA.gov is the U.S. government's official web portal to all federal, state and local government web resources and services.